Time;durP1;ratioP1;P1;durP2;ratioP2;P2;SDS_P1;SDS_P2;PMS_P1;PMS_P2;Temp;Humidity;BMP_temperature;BMP_pressure;BME280_temperature;BME280_humidity;BME280_pressure;Samples;Min_cycle;Max_cycle;Signal;HPM_P1;HPM_P2
2023/12/07 00:03:16;;;;;;;14.00;6.83;;;;;;;5.25;74.08;101003.06;4805925;29;20230;-69
2023/12/07 00:06:02;;;;;;;18.13;7.40;;;;;;;5.20;74.47;101003.38;4806669;29;20216;-70
2023/12/07 00:08:53;;;;;;;15.00;8.10;;;;;;;5.23;74.54;101002.31;4802862;29;20261;-69
2023/12/07 00:11:38;;;;;;;17.63;8.20;;;;;;;5.23;74.55;101010.22;4825513;29;20205;-69
2023/12/07 00:17:26;;;;;;;17.00;8.37;;;;;;;5.12;74.76;101012.69;4827151;29;20240;-69
2023/12/07 00:27:30;;;;;;;15.43;7.53;;;;;;;5.09;74.59;101019.03;4730063;30;20221;-70
2023/12/07 00:30:15;;;;;;;14.63;7.87;;;;;;;5.08;74.45;101016.50;4774385;29;20209;-70
2023/12/07 00:33:24;;;;;;;15.93;9.23;;;;;;;5.05;74.40;101014.88;4828106;29;20207;-69
2023/12/07 00:36:17;;;;;;;16.10;7.97;;;;;;;5.03;74.71;101013.28;4826038;29;20271;-69
2023/12/07 00:42:59;;;;;;;;;;;;;;;;;;;;;
2023/12/07 00:46:33;;;;;;;14.77;8.17;;;;;;;5.04;74.41;101025.50;4787817;29;20379;-71
2023/12/07 00:49:46;;;;;;;19.17;8.33;;;;;;;5.04;74.39;101020.25;4788061;29;20263;-70
2023/12/07 00:59:49;;;;;;;13.87;7.80;;;;;;;4.93;74.63;101023.56;4765040;29;20242;-69
2023/12/07 01:03:12;;;;;;;20.97;8.37;;;;;;;4.86;74.77;101028.38;4761461;30;20230;-69
2023/12/07 01:06:25;;;;;;;16.10;8.20;;;;;;;4.75;75.08;101022.94;4765476;29;20228;-70
2023/12/07 01:09:29;;;;;;;19.33;8.00;;;;;;;4.74;75.24;101031.78;4770739;29;20218;-69
2023/12/07 01:12:35;;;;;;;16.13;7.80;;;;;;;4.74;75.00;101037.06;4780512;29;20225;-69
2023/12/07 01:16:18;;;;;;;16.63;8.43;;;;;;;4.70;75.03;101043.44;4796262;29;20226;-70
2023/12/07 01:19:41;;;;;;;16.50;8.67;;;;;;;4.65;75.27;101045.50;4807512;29;20849;-69
2023/12/07 01:35:57;;;;;;;18.27;8.03;;;;;;;4.44;76.10;101052.94;4826512;29;20279;-69
2023/12/07 01:38:40;;;;;;;13.73;7.87;;;;;;;4.42;76.23;101061.84;4824728;29;20229;-69
2023/12/07 01:41:21;;;;;;;19.17;8.60;;;;;;;4.40;75.98;101061.09;4825751;29;20270;-70
2023/12/07 01:44:13;;;;;;;14.03;7.67;;;;;;;4.43;76.18;101059.13;4825309;29;20234;-69
2023/12/07 01:50:23;;;;;;;15.07;8.17;;;;;;;4.40;76.32;101071.59;4770437;29;20262;-69
2023/12/07 01:53:16;;;;;;;21.17;8.93;;;;;;;4.51;76.02;101063.91;4765459;30;20617;-69
2023/12/07 01:55:46;;;;;;;20.43;9.83;;;;;;;4.57;75.83;101063.53;4767669;29;20220;-70
2023/12/07 01:58:21;;;;;;;18.27;8.83;;;;;;;4.52;75.68;101065.59;4766854;29;21211;-69
2023/12/07 02:01:12;;;;;;;19.77;8.50;;;;;;;4.42;75.94;101065.31;4769689;29;20222;-69
2023/12/07 02:10:40;;;;;;;21.37;9.70;;;;;;;4.42;76.01;101061.84;4722984;30;20264;-69
2023/12/07 02:14:04;;;;;;;20.27;9.10;;;;;;;4.51;75.75;101063.91;4741871;30;20219;-69
2023/12/07 02:23:49;;;;;;;;;;;;;;;;;;;;;
2023/12/07 02:26:37;;;;;;;16.83;8.80;;;;;;;4.27;76.14;101066.25;4751118;29;20229;-69
2023/12/07 02:29:19;;;;;;;18.33;9.37;;;;;;;4.34;76.05;101064.94;4799627;29;20226;-69
2023/12/07 02:35:28;;;;;;;20.40;10.30;;;;;;;4.13;76.52;101059.19;4783922;29;21266;-69
2023/12/07 02:41:54;;;;;;;18.43;9.40;;;;;;;4.10;76.80;101059.41;4798272;29;20696;-69
2023/12/07 02:45:42;;;;;;;18.73;10.00;;;;;;;4.15;76.54;101061.75;4728105;30;20269;-69
2023/12/07 02:52:23;;;;;;;25.47;10.57;;;;;;;4.21;76.45;101068.41;4689170;30;20382;-70
2023/12/07 02:55:36;;;;;;;;;;;;;;;;;;;;;
2023/12/07 02:58:36;;;;;;;18.07;10.10;;;;;;;4.09;76.48;101072.63;4707952;30;20236;-69
2023/12/07 03:01:38;;;;;;;20.80;10.50;;;;;;;4.06;76.64;101078.88;4759252;30;20219;-69
2023/12/07 03:04:24;;;;;;;19.63;9.70;;;;;;;4.01;76.58;101080.09;4827832;29;20646;-69
2023/12/07 03:07:08;;;;;;;18.80;10.03;;;;;;;3.95;76.73;101076.06;4827530;29;20289;-69
2023/12/07 03:13:08;;;;;;;21.80;11.20;;;;;;;4.02;76.57;101082.66;4825307;29;20296;-69
2023/12/07 03:15:56;;;;;;;22.47;11.00;;;;;;;4.05;76.57;101063.22;4829635;29;20223;-69
2023/12/07 03:18:40;;;;;;;23.90;11.47;;;;;;;4.05;76.72;101077.19;4827022;29;20291;-69
2023/12/07 03:21:31;;;;;;;24.03;11.90;;;;;;;4.05;77.09;101085.06;4828445;29;20214;-69
2023/12/07 03:24:15;;;;;;;23.83;11.90;;;;;;;4.09;76.99;101085.75;4828769;29;20268;-69
2023/12/07 03:27:01;;;;;;;22.90;11.73;;;;;;;4.09;76.77;101076.09;4828067;29;20234;-69
2023/12/07 03:33:05;;;;;;;22.27;11.33;;;;;;;4.06;76.78;101094.63;4780122;29;20217;-69
2023/12/07 03:35:48;;;;;;;23.63;11.73;;;;;;;4.06;76.26;101094.63;4815315;29;21109;-68
2023/12/07 03:38:58;;;;;;;25.07;11.53;;;;;;;3.90;76.51;101093.84;4813116;29;20228;-69
2023/12/07 03:41:55;;;;;;;23.10;11.50;;;;;;;3.78;76.58;101094.59;4815265;29;20207;-69
2023/12/07 03:44:54;;;;;;;19.30;11.33;;;;;;;3.73;76.65;101096.63;4760515;29;20211;-70
2023/12/07 03:47:37;;;;;;;21.93;11.17;;;;;;;3.69;76.62;101101.19;4810488;29;20355;-69
2023/12/07 03:50:35;;;;;;;22.23;11.47;;;;;;;3.64;76.09;101107.66;4815243;29;20302;-69
2023/12/07 03:53:16;;;;;;;23.63;11.40;;;;;;;3.58;76.40;101108.00;4818453;29;20222;-69
2023/12/07 03:59:26;;;;;;;24.93;12.07;;;;;;;3.51;76.82;101104.06;4806000;29;20229;-69
2023/12/07 04:02:32;;;;;;;23.80;11.20;;;;;;;3.49;76.61;101098.91;4813933;29;20287;-69
2023/12/07 04:09:13;;;;;;;25.63;11.40;;;;;;;3.48;76.47;101117.31;4737731;30;20309;-69
2023/12/07 04:12:03;;;;;;;22.30;10.87;;;;;;;3.46;76.40;101108.69;4825122;29;20219;-69
2023/12/07 04:14:48;;;;;;;23.43;12.23;;;;;;;3.45;76.48;101104.38;4828200;29;20237;-68
2023/12/07 04:17:31;;;;;;;29.23;13.00;;;;;;;3.46;76.59;101114.78;4823236;29;20214;-69
2023/12/07 04:20:14;;;;;;;26.10;12.20;;;;;;;3.46;76.79;101108.69;4826176;29;20217;-69
2023/12/07 04:22:56;;;;;;;21.53;11.90;;;;;;;3.41;76.58;101111.59;4828037;29;20210;-71
2023/12/07 04:25:55;;;;;;;29.70;12.60;;;;;;;3.42;76.75;101115.06;4829079;29;20236;-69
2023/12/07 04:28:58;;;;;;;31.23;12.37;;;;;;;3.44;76.33;101115.81;4826170;29;20257;-69
2023/12/07 04:35:11;;;;;;;25.90;11.30;;;;;;;3.38;76.19;101127.50;4824205;29;20374;-69
2023/12/07 04:41:54;;;;;;;24.60;12.17;;;;;;;3.42;75.43;101130.78;4828685;29;20348;-69
2023/12/07 04:51:07;;;;;;;25.53;12.20;;;;;;;3.41;76.23;101132.56;4825957;29;20293;-69
2023/12/07 04:53:43;;;;;;;23.20;11.70;;;;;;;3.46;76.56;101129.69;4826537;29;20227;-69
2023/12/07 04:56:54;;;;;;;25.63;12.53;;;;;;;3.47;76.76;101131.38;4827527;29;20233;-69
2023/12/07 04:59:47;;;;;;;25.43;11.87;;;;;;;3.43;76.84;101132.50;4796615;29;20283;-69
2023/12/07 05:06:44;;;;;;;23.50;12.43;;;;;;;3.29;76.35;101128.00;4774552;29;20348;-70
2023/12/07 05:09:54;;;;;;;25.50;12.17;;;;;;;3.32;76.53;101123.44;4820523;29;20936;-69
2023/12/07 05:12:35;;;;;;;24.33;11.60;;;;;;;3.37;76.89;101123.19;4824000;29;20660;-69
2023/12/07 05:15:17;;;;;;;26.63;11.93;;;;;;;3.42;76.88;101133.41;4829038;29;20747;-70
2023/12/07 05:17:58;;;;;;;28.10;12.53;;;;;;;3.42;76.53;101131.66;4815167;29;20227;-70
2023/12/07 05:21:11;;;;;;;26.53;12.53;;;;;;;3.36;76.84;101130.19;4822870;29;20226;-69
2023/12/07 05:46:32;;;;;;;27.73;12.03;;;;;;;3.41;77.10;101122.09;4740087;30;20255;-69
2023/12/07 05:52:45;;;;;;;22.50;10.80;;;;;;;3.64;77.00;101118.97;4735482;30;20721;-70
2023/12/07 05:55:37;;;;;;;24.10;10.77;;;;;;;3.67;77.10;101128.47;4739884;30;20249;-70
2023/12/07 05:58:19;;;;;;;21.30;10.70;;;;;;;3.64;77.07;101129.47;4769505;29;20394;-69
2023/12/07 06:01:08;;;;;;;23.03;10.97;;;;;;;3.72;76.82;101134.28;4775470;29;20223;-69
2023/12/07 06:04:09;;;;;;;23.47;10.43;;;;;;;3.70;77.04;101128.28;4774381;29;20572;-69
2023/12/07 06:13:10;;;;;;;22.77;12.47;;;;;;;3.70;76.80;101128.28;4822004;29;20275;-69
2023/12/07 06:16:02;;;;;;;20.97;10.83;;;;;;;3.58;77.08;101136.84;4825678;29;20218;-70
2023/12/07 06:18:40;;;;;;;22.30;11.13;;;;;;;3.50;77.53;101137.31;4825451;29;20691;-69
2023/12/07 06:40:25;;;;;;;25.93;11.53;;;;;;;3.46;77.63;101141.00;4764588;29;20229;-69
2023/12/07 20:48:57;;;;;;;25.93;13.07;;;;;;;4.06;76.92;100365.06;4957442;28;20223;-66
